createdAt,value
2022-11-24T00:01:25.384Z,100443.34
2022-11-24T00:04:03.409Z,100435.41
2022-11-24T00:06:31.845Z,100433.06
2022-11-24T00:08:58.984Z,100422.13
2022-11-24T00:11:28.756Z,100440.63
2022-11-24T00:13:56.083Z,100451.22
2022-11-24T00:16:28.253Z,100467.88
2022-11-24T00:18:56.856Z,100480.47
2022-11-24T00:21:25.165Z,100479.00
2022-11-24T00:23:52.009Z,100473.88
2022-11-24T00:26:30.379Z,100470.59
2022-11-24T00:28:59.987Z,100466.31
2022-11-24T00:31:37.307Z,100466.22
2022-11-24T00:34:06.393Z,100468.19
2022-11-24T00:36:34.989Z,100472.50
2022-11-24T00:39:04.434Z,100467.56
2022-11-24T00:41:31.635Z,100468.84
2022-11-24T00:43:58.917Z,100468.19
2022-11-24T00:46:26.414Z,100467.22
2022-11-24T00:48:54.111Z,100471.19
2022-11-24T00:51:23.182Z,100474.84
2022-11-24T00:53:49.708Z,100473.56
2022-11-24T00:56:16.256Z,100474.91
2022-11-24T00:58:42.745Z,100487.13
2022-11-24T01:01:13.516Z,100486.66
2022-11-24T01:03:40.614Z,100491.66
2022-11-24T01:06:26.894Z,100501.72
2022-11-24T01:08:54.087Z,100496.44
2022-11-24T01:11:29.186Z,100505.38
2022-11-24T01:13:58.492Z,100492.69
2022-11-24T01:16:28.712Z,100504.06
2022-11-24T01:18:55.988Z,100508.69
2022-11-24T01:21:23.361Z,100512.03
2022-11-24T01:23:50.462Z,100511.38
2022-11-24T01:26:20.455Z,100504.16
2022-11-24T01:28:47.897Z,100509.44
2022-11-24T01:31:15.673Z,100517.38
2022-11-24T01:33:42.319Z,100521.00
2022-11-24T01:36:08.847Z,100512.44
2022-11-24T01:38:35.373Z,100513.41
2022-11-24T01:41:03.062Z,100508.47
2022-11-24T01:43:29.620Z,100521.88
2022-11-24T01:45:58.665Z,100514.09
2022-11-24T01:48:32.594Z,100525.50
2022-11-24T01:51:15.099Z,100522.34
2022-11-24T01:53:45.676Z,100526.28
2022-11-24T01:56:13.673Z,100523.78
2022-11-24T01:58:43.144Z,100517.16
2022-11-24T02:01:09.851Z,100534.97
2022-11-24T02:03:39.756Z,100533.44
2022-11-24T02:06:12.755Z,100533.09
2022-11-24T02:08:39.188Z,100526.31
2022-11-24T02:11:06.480Z,100527.25
2022-11-24T02:13:38.309Z,100532.63
2022-11-24T02:16:07.933Z,100526.81
2022-11-24T02:18:34.569Z,100533.41
2022-11-24T02:21:01.275Z,100540.63
2022-11-24T02:23:38.752Z,100547.56
2022-11-24T02:26:41.618Z,100541.56
2022-11-24T02:29:09.444Z,100543.69
2022-11-24T02:31:36.023Z,100541.69
2022-11-24T02:34:02.476Z,100547.34
2022-11-24T02:36:28.978Z,100546.34
2022-11-24T02:38:55.396Z,100545.16
2022-11-24T02:41:25.239Z,100552.28
2022-11-24T02:43:57.164Z,100558.84
2022-11-24T02:46:23.659Z,100557.38
2022-11-24T02:48:50.164Z,100562.16
2022-11-24T02:51:16.833Z,100560.50
2022-11-24T02:53:43.323Z,100565.59
2022-11-24T02:56:09.789Z,100555.03
2022-11-24T02:58:36.488Z,100567.53
2022-11-24T03:01:03.179Z,100562.59
2022-11-24T03:03:29.718Z,100562.25
2022-11-24T03:05:56.213Z,100557.81
2022-11-24T03:08:22.696Z,100569.03
2022-11-24T03:10:49.271Z,100557.44
2022-11-24T03:13:15.908Z,100562.09
2022-11-24T03:15:42.432Z,100554.81
2022-11-24T03:18:09.007Z,100551.50
2022-11-24T03:20:35.422Z,100560.09
2022-11-24T03:23:01.897Z,100564.72
2022-11-24T03:25:28.339Z,100566.50
2022-11-24T03:27:57.164Z,100563.88
2022-11-24T03:30:23.698Z,100571.00
2022-11-24T03:32:53.482Z,100565.50
2022-11-24T03:35:21.145Z,100569.00
2022-11-24T03:37:48.266Z,100577.56
2022-11-24T03:40:14.941Z,100573.09
2022-11-24T03:42:41.403Z,100566.34
2022-11-24T03:47:54.823Z,100568.28
2022-11-24T03:50:21.375Z,100572.94
2022-11-24T03:52:47.787Z,100577.56
2022-11-24T03:55:14.331Z,100574.28
2022-11-24T03:57:40.779Z,100585.22
2022-11-24T04:00:08.044Z,100584.88
2022-11-24T04:02:34.504Z,100591.81
2022-11-24T04:05:01.008Z,100596.09
2022-11-24T04:07:27.498Z,100595.91
2022-11-24T04:09:53.919Z,100598.38
2022-11-24T04:12:38.946Z,100591.09
2022-11-24T04:15:05.962Z,100603.69
2022-11-24T04:17:32.416Z,100599.38
2022-11-24T04:19:58.888Z,100608.13
2022-11-24T04:22:25.609Z,100618.72
2022-11-24T04:24:52.067Z,100619.56
2022-11-24T04:27:18.496Z,100620.34
2022-11-24T04:29:45.000Z,100623.19
2022-11-24T04:32:11.415Z,100625.34
2022-11-24T04:34:37.863Z,100626.56
2022-11-24T04:37:04.295Z,100641.59
2022-11-24T04:39:30.859Z,100631.50
2022-11-24T04:41:57.288Z,100645.38
2022-11-24T04:44:23.729Z,100643.75
2022-11-24T04:46:50.215Z,100652.66
2022-11-24T04:49:16.757Z,100654.47
2022-11-24T04:51:43.572Z,100648.38
2022-11-24T04:54:12.124Z,100670.19
2022-11-24T04:56:39.697Z,100669.34
2022-11-24T04:59:08.406Z,100670.19
2022-11-24T05:01:35.400Z,100684.41
2022-11-24T05:04:01.961Z,100684.75
2022-11-24T05:06:28.531Z,100692.50
2022-11-24T05:08:54.960Z,100687.22
2022-11-24T05:11:21.451Z,100696.50
2022-11-24T05:13:47.920Z,100700.13
2022-11-24T05:16:14.390Z,100709.06
2022-11-24T05:18:40.940Z,100714.72
2022-11-24T05:21:07.336Z,100718.69
2022-11-24T05:23:33.794Z,100719.03
2022-11-24T05:26:01.235Z,100718.91
2022-11-24T05:28:28.116Z,100729.50
2022-11-24T05:30:54.877Z,100725.53
2022-11-24T05:33:23.006Z,100723.25
2022-11-24T05:35:50.200Z,100729.22
2022-11-24T05:38:17.921Z,100740.94
2022-11-24T05:40:44.532Z,100748.22
2022-11-24T05:43:15.630Z,100749.72
2022-11-24T05:45:43.265Z,100747.63
2022-11-24T05:48:14.317Z,100761.16
2022-11-24T05:50:41.015Z,100759.50
2022-11-24T05:53:12.881Z,100767.78
2022-11-24T05:55:41.434Z,100771.75
2022-11-24T05:58:09.883Z,100790.59
2022-11-24T06:00:36.946Z,100789.94
2022-11-24T06:03:04.040Z,100785.78
2022-11-24T06:05:30.699Z,100797.34
2022-11-24T06:08:00.445Z,100800.66
2022-11-24T06:10:27.252Z,100801.63
2022-11-24T06:12:53.888Z,100815.50
2022-11-24T06:15:20.449Z,100821.97
2022-11-24T06:17:56.786Z,100822.31
2022-11-24T06:20:27.215Z,100835.34
2022-11-24T06:22:59.030Z,100834.53
2022-11-24T06:25:25.572Z,100837.97
2022-11-24T06:27:52.075Z,100847.56
2022-11-24T06:30:18.519Z,100847.72
2022-11-24T06:32:49.295Z,100855.66
2022-11-24T06:35:16.450Z,100863.41
2022-11-24T06:37:43.076Z,100867.88
2022-11-24T06:40:10.038Z,100869.03
2022-11-24T06:42:37.407Z,100881.25
2022-11-24T06:45:08.982Z,100887.50
2022-11-24T06:47:36.247Z,100893.13
2022-11-24T06:50:02.854Z,100888.84
2022-11-24T06:52:29.302Z,100901.38
2022-11-24T06:54:55.973Z,100891.47
2022-11-24T06:57:22.426Z,100902.03
2022-11-24T06:59:49.080Z,100911.28
2022-11-24T07:02:15.525Z,100911.59
2022-11-24T07:04:42.000Z,100914.56
2022-11-24T07:07:08.735Z,100922.34
2022-11-24T07:09:35.260Z,100931.91
2022-11-24T07:12:02.349Z,100925.13
2022-11-24T07:14:28.780Z,100940.00
2022-11-24T07:16:55.378Z,100945.28
2022-11-24T07:19:25.081Z,100945.94
2022-11-24T07:21:52.026Z,100955.69
2022-11-24T07:24:18.897Z,100956.50
2022-11-24T07:26:45.584Z,100951.56
2022-11-24T07:29:12.041Z,100959.50
2022-11-24T07:31:38.636Z,100958.34
2022-11-24T07:34:05.292Z,100954.06
2022-11-24T07:36:31.877Z,100957.69
2022-11-24T07:38:58.494Z,100968.41
2022-11-24T07:41:25.453Z,100976.00
2022-11-24T07:43:52.026Z,100977.66
2022-11-24T07:46:20.005Z,100992.38
2022-11-24T07:48:47.295Z,100993.19
2022-11-24T07:51:14.192Z,100985.94
2022-11-24T07:53:40.745Z,100996.50
2022-11-24T07:56:07.749Z,101002.44
2022-11-24T07:58:36.685Z,101007.72
2022-11-24T08:01:15.247Z,101023.25
2022-11-24T08:03:43.645Z,101031.03
2022-11-24T08:06:32.232Z,101036.16
2022-11-24T08:08:59.025Z,101036.16
2022-11-24T08:11:26.047Z,101037.81
2022-11-24T08:13:52.610Z,101038.31
2022-11-24T08:16:20.523Z,101049.56
2022-11-24T08:18:53.242Z,101059.63
2022-11-24T08:21:20.244Z,101054.03
2022-11-24T08:23:47.171Z,101047.75
2022-11-24T08:26:17.843Z,101045.78
2022-11-24T08:28:45.585Z,101047.28
2022-11-24T08:31:15.058Z,101047.44
2022-11-24T08:33:41.865Z,101056.19
2022-11-24T08:36:16.531Z,101060.63
2022-11-24T08:38:44.741Z,101063.94
2022-11-24T08:41:14.007Z,101063.63
2022-11-24T08:43:41.396Z,101068.59
2022-11-24T08:46:11.061Z,101074.53
2022-11-24T08:48:37.925Z,101068.59
2022-11-24T08:51:13.529Z,101071.06
2022-11-24T08:53:41.320Z,101083.59
2022-11-24T08:56:09.364Z,101097.00
2022-11-24T08:58:38.017Z,101098.97
2022-11-24T09:01:07.607Z,101102.78
2022-11-24T09:03:34.828Z,101093.53
2022-11-24T09:06:02.424Z,101099.78
2022-11-24T09:08:33.141Z,101101.28
2022-11-24T09:11:01.418Z,101104.59
2022-11-24T09:13:28.660Z,101113.19
2022-11-24T09:15:55.265Z,101116.66
2022-11-24T09:18:25.235Z,101120.50
2022-11-24T09:20:58.377Z,101111.91
2022-11-24T09:23:24.798Z,101121.66
2022-11-24T09:25:51.648Z,101124.19
2022-11-24T09:28:18.124Z,101119.25
2022-11-24T09:30:44.611Z,101132.47
2022-11-24T09:33:11.100Z,101125.72
2022-11-24T09:35:38.510Z,101130.22
2022-11-24T09:38:05.643Z,101132.19
2022-11-24T09:40:32.809Z,101141.81
2022-11-24T09:43:08.487Z,101143.28
2022-11-24T09:46:05.375Z,101137.31
2022-11-24T09:48:55.523Z,101148.25
2022-11-24T09:51:27.096Z,101162.47
2022-11-24T09:54:03.309Z,101166.28
2022-11-24T09:56:34.586Z,101163.13
2022-11-24T09:59:06.461Z,101175.88
2022-11-24T10:01:40.503Z,101175.22
2022-11-24T10:04:40.346Z,101176.19
2022-11-24T10:07:51.010Z,101182.13
2022-11-24T10:10:25.178Z,101181.78
2022-11-24T10:12:58.021Z,101184.75
2022-11-24T10:15:53.536Z,101184.09
2022-11-24T10:18:34.684Z,101195.84
2022-11-24T10:21:22.297Z,101195.50
2022-11-24T10:24:02.968Z,101201.97
2022-11-24T10:26:29.406Z,101212.44
2022-11-24T10:28:56.425Z,101207.63
2022-11-24T10:31:30.814Z,101207.94
2022-11-24T10:34:03.436Z,101209.78
2022-11-24T10:36:38.794Z,101225.16
2022-11-24T10:39:37.275Z,101224.78
2022-11-24T10:42:29.681Z,101229.41
2022-11-24T10:45:01.430Z,101227.22
2022-11-24T10:47:29.052Z,101231.16
2022-11-24T10:50:01.178Z,101236.59
2022-11-24T10:52:30.897Z,101229.47
2022-11-24T10:55:02.352Z,101226.63
2022-11-24T10:57:34.484Z,101237.25
2022-11-24T11:00:03.442Z,101237.75
2022-11-24T11:02:40.037Z,101239.88
2022-11-24T11:05:35.167Z,101242.50
2022-11-24T11:08:22.270Z,101237.59
2022-11-24T11:10:51.723Z,101242.44
2022-11-24T11:13:29.424Z,101247.84
2022-11-24T11:15:57.648Z,101251.84
2022-11-24T11:18:34.019Z,101255.31
2022-11-24T11:21:02.416Z,101251.69
2022-11-24T11:23:32.335Z,101248.50
2022-11-24T11:26:20.044Z,101237.84
2022-11-24T11:34:49.187Z,101237.31
2022-11-24T11:37:16.692Z,101234.13
2022-11-24T11:39:48.837Z,101239.22
2022-11-24T11:45:27.829Z,101235.41
2022-11-24T11:48:23.908Z,101231.50
2022-11-24T11:54:22.594Z,101233.25
2022-11-24T11:56:56.371Z,101237.91
2022-11-24T11:59:55.154Z,101242.50
2022-11-24T12:02:53.296Z,101239.16
2022-11-24T12:05:58.907Z,101235.44
2022-11-24T12:09:19.841Z,101239.38
2022-11-24T12:12:14.230Z,101239.91
2022-11-24T12:15:05.858Z,101238.09
2022-11-24T12:18:21.515Z,101236.31
2022-11-24T12:21:09.217Z,101241.25
2022-11-24T12:23:38.573Z,101251.25
2022-11-24T12:26:24.553Z,101248.59
2022-11-24T12:29:00.022Z,101241.91
2022-11-24T12:31:39.048Z,101250.34
2022-11-24T12:34:34.937Z,101240.72
2022-11-24T12:37:13.561Z,101246.69
2022-11-24T12:39:49.696Z,101244.22
2022-11-24T12:42:34.281Z,101243.78
2022-11-24T12:45:09.816Z,101249.75
2022-11-24T12:47:48.480Z,101258.59
2022-11-24T12:50:19.348Z,101259.88
2022-11-24T12:52:58.677Z,101261.28
2022-11-24T12:55:26.577Z,101263.47
2022-11-24T12:58:11.059Z,101266.66
2022-11-24T13:01:16.930Z,101268.31
2022-11-24T13:04:21.143Z,101262.44
2022-11-24T13:06:57.909Z,101262.94
2022-11-24T13:09:24.395Z,101259.94
2022-11-24T13:12:05.160Z,101261.31
2022-11-24T13:14:33.973Z,101265.19
2022-11-24T13:17:30.709Z,101265.69
2022-11-24T13:20:21.132Z,101262.53
2022-11-24T13:23:16.963Z,101261.53
2022-11-24T13:26:27.489Z,101263.63
2022-11-24T13:29:03.530Z,101251.19
2022-11-24T13:31:32.514Z,101256.50
2022-11-24T13:33:59.072Z,101255.78
2022-11-24T13:36:25.833Z,101261.47
2022-11-24T13:38:53.991Z,101258.59
2022-11-24T13:41:32.721Z,101258.78
2022-11-24T13:44:15.309Z,101260.63
2022-11-24T13:47:05.803Z,101260.63
2022-11-24T13:49:40.786Z,101261.47
2022-11-24T13:52:46.194Z,101255.94
2022-11-24T13:55:12.607Z,101260.44
2022-11-24T13:57:52.029Z,101264.28
2022-11-24T14:00:23.094Z,101254.34
2022-11-24T14:02:52.270Z,101255.56
2022-11-24T14:05:22.624Z,101261.69
2022-11-24T14:07:51.700Z,101260.88
2022-11-24T14:10:23.475Z,101256.91
2022-11-24T14:13:28.409Z,101259.94
2022-11-24T14:16:07.176Z,101256.78
2022-11-24T14:18:35.199Z,101262.66
2022-11-24T14:21:22.222Z,101241.75
2022-11-24T14:23:53.061Z,101249.06
2022-11-24T14:26:22.016Z,101247.56
2022-11-24T14:28:49.313Z,101241.81
2022-11-24T14:31:24.845Z,101228.56
2022-11-24T14:34:07.074Z,101238.06
2022-11-24T14:36:33.582Z,101244.28
2022-11-24T14:39:00.101Z,101242.63
2022-11-24T14:41:28.341Z,101250.28
2022-11-24T14:44:16.415Z,101257.44
2022-11-24T14:46:42.910Z,101262.94
2022-11-24T14:49:09.668Z,101258.34
2022-11-24T14:51:37.879Z,101250.41
2022-11-24T14:54:15.175Z,101251.09
2022-11-24T14:56:42.136Z,101253.44
2022-11-24T14:59:23.467Z,101254.97
2022-11-24T15:01:50.005Z,101257.44
2022-11-24T15:04:54.578Z,101254.81
2022-11-24T15:07:29.119Z,101260.00
2022-11-24T15:09:58.679Z,101256.19
2022-11-24T15:12:30.568Z,101268.47
2022-11-24T15:14:59.518Z,101261.06
2022-11-24T15:17:28.607Z,101260.88
2022-11-24T15:20:01.425Z,101261.75
2022-11-24T15:22:43.587Z,101266.06
2022-11-24T15:25:32.382Z,101270.88
2022-11-24T15:27:59.527Z,101275.84
2022-11-24T15:30:26.711Z,101272.88
2022-11-24T15:32:58.431Z,101272.19
2022-11-24T15:35:29.972Z,101278.16
2022-11-24T15:37:56.799Z,101280.81
2022-11-24T15:40:23.553Z,101276.38
2022-11-24T15:42:52.914Z,101275.03
2022-11-24T15:45:20.950Z,101281.81
2022-11-24T15:47:47.688Z,101271.88
2022-11-24T15:50:14.865Z,101269.25
2022-11-24T15:52:42.257Z,101270.72
2022-11-24T15:55:22.378Z,101267.25
2022-11-24T15:57:49.179Z,101274.34
2022-11-24T16:00:18.584Z,101266.06
2022-11-24T16:02:45.172Z,101278.63
2022-11-24T16:05:12.312Z,101272.19
2022-11-24T16:07:38.901Z,101281.56
2022-11-24T16:10:07.352Z,101268.84
2022-11-24T16:12:33.847Z,101266.53
2022-11-24T16:15:00.339Z,101275.28
2022-11-24T16:17:26.857Z,101269.16
2022-11-24T16:20:00.109Z,101267.63
2022-11-24T16:22:27.326Z,101268.81
2022-11-24T16:24:53.960Z,101269.44
2022-11-24T16:27:20.400Z,101275.00
2022-11-24T16:29:46.860Z,101277.31
2022-11-24T16:32:13.366Z,101272.03
2022-11-24T16:34:39.802Z,101273.31
2022-11-24T16:37:06.247Z,101277.41
2022-11-24T16:39:32.687Z,101284.22
2022-11-24T16:41:59.144Z,101284.38
2022-11-24T16:44:25.644Z,101281.06
2022-11-24T16:46:52.127Z,101287.19
2022-11-24T16:49:18.757Z,101286.34
2022-11-24T16:51:45.193Z,101276.75
2022-11-24T16:54:11.761Z,101274.94
2022-11-24T16:56:38.216Z,101269.97
2022-11-24T16:59:04.725Z,101271.63
2022-11-24T17:01:32.791Z,101278.06
2022-11-24T17:04:00.312Z,101283.53
2022-11-24T17:06:26.950Z,101277.56
2022-11-24T17:08:55.373Z,101276.72
2022-11-24T17:11:23.800Z,101279.69
2022-11-24T17:13:50.418Z,101276.34
2022-11-24T17:16:19.441Z,101281.50
2022-11-24T17:18:46.497Z,101273.88
2022-11-24T17:21:24.009Z,101272.06
2022-11-24T17:23:57.695Z,101282.84
2022-11-24T17:26:25.343Z,101274.59
2022-11-24T17:28:52.665Z,101276.41
2022-11-24T17:31:24.663Z,101280.56
2022-11-24T17:33:53.610Z,101283.88
2022-11-24T17:36:20.451Z,101283.88
2022-11-24T17:38:49.446Z,101270.66
2022-11-24T17:41:16.689Z,101280.25
2022-11-24T17:43:43.134Z,101277.06
2022-11-24T17:46:10.401Z,101282.22
2022-11-24T17:48:36.891Z,101280.56
2022-11-24T17:51:14.853Z,101279.22
2022-11-24T17:53:43.582Z,101288.13
2022-11-24T17:56:13.725Z,101297.06
2022-11-24T17:58:43.051Z,101281.50
2022-11-24T18:01:11.183Z,101274.56
2022-11-24T18:03:41.440Z,101280.34
2022-11-24T18:06:12.805Z,101276.72
2022-11-24T18:08:45.226Z,101281.34
2022-11-24T18:11:14.456Z,101284.81
2022-11-24T18:13:56.603Z,101280.88
2022-11-24T18:16:28.072Z,101280.56
2022-11-24T18:19:07.849Z,101287.34
2022-11-24T18:21:37.681Z,101287.84
2022-11-24T18:24:04.226Z,101294.31
2022-11-24T18:26:30.696Z,101282.25
2022-11-24T18:28:57.207Z,101275.97
2022-11-24T18:31:23.879Z,101282.91
2022-11-24T18:33:50.347Z,101274.31
2022-11-24T18:36:18.920Z,101274.31
2022-11-24T18:38:45.424Z,101270.16
2022-11-24T18:41:13.827Z,101267.69
2022-11-24T18:43:40.643Z,101268.81
2022-11-24T18:46:10.214Z,101267.16
2022-11-24T18:48:36.892Z,101269.00
2022-11-24T18:51:03.843Z,101269.81
2022-11-24T18:53:30.409Z,101263.03
2022-11-24T18:56:02.966Z,101268.31
2022-11-24T18:58:31.458Z,101261.69
2022-11-24T19:01:08.033Z,101268.97
2022-11-24T19:03:41.341Z,101274.88
2022-11-24T19:06:14.072Z,101267.63
2022-11-24T19:08:40.589Z,101259.31
2022-11-24T19:11:07.367Z,101254.03
2022-11-24T19:13:33.800Z,101253.38
2022-11-24T19:16:00.354Z,101256.00
2022-11-24T19:18:29.309Z,101254.34
2022-11-24T19:20:57.252Z,101249.06
2022-11-24T19:23:23.801Z,101254.34
2022-11-24T19:25:50.280Z,101253.50
2022-11-24T19:28:16.695Z,101248.22
2022-11-24T19:30:45.283Z,101250.19
2022-11-24T19:33:11.873Z,101251.03
2022-11-24T19:35:38.340Z,101245.06
2022-11-24T19:38:04.784Z,101246.06
2022-11-24T19:40:31.483Z,101237.47
2022-11-24T19:42:57.954Z,101236.78
2022-11-24T19:45:24.478Z,101243.06
2022-11-24T19:47:51.019Z,101242.22
2022-11-24T19:50:18.503Z,101233.66
2022-11-24T19:52:45.987Z,101237.59
2022-11-24T19:55:12.453Z,101244.53
2022-11-24T19:57:38.916Z,101244.00
2022-11-24T20:00:07.048Z,101257.91
2022-11-24T20:02:33.766Z,101257.09
2022-11-24T20:05:00.358Z,101263.19
2022-11-24T20:07:26.833Z,101254.59
2022-11-24T20:09:53.350Z,101252.13
2022-11-24T20:12:19.869Z,101248.47
2022-11-24T20:14:46.339Z,101257.22
2022-11-24T20:17:13.976Z,101256.25
2022-11-24T20:19:40.530Z,101250.28
2022-11-24T20:22:07.008Z,101255.44
2022-11-24T20:24:33.708Z,101251.25
2022-11-24T20:27:00.449Z,101249.47
2022-11-24T20:29:29.110Z,101246.97
2022-11-24T20:31:56.395Z,101244.31
2022-11-24T20:34:24.146Z,101235.91
2022-11-24T20:36:52.999Z,101237.38
2022-11-24T20:39:23.835Z,101233.75
2022-11-24T20:41:50.281Z,101248.31
2022-11-24T20:44:19.490Z,101247.50
2022-11-24T20:46:46.660Z,101235.09
2022-11-24T20:49:17.112Z,101242.03
2022-11-24T20:51:46.926Z,101242.56
2022-11-24T20:54:14.485Z,101235.63
2022-11-24T20:56:43.249Z,101234.16
2022-11-24T20:59:18.603Z,101242.25
2022-11-24T21:01:46.559Z,101245.56
2022-11-24T21:04:20.285Z,101237.66
2022-11-24T21:06:47.648Z,101240.16
2022-11-24T21:09:14.138Z,101244.13
2022-11-24T21:11:41.399Z,101237.84
2022-11-24T21:14:08.635Z,101243.50
2022-11-24T21:16:37.397Z,101243.31
2022-11-24T21:19:06.472Z,101244.16
2022-11-24T21:21:36.305Z,101243.84
2022-11-24T21:24:05.262Z,101230.44
2022-11-24T21:26:34.989Z,101233.75
2022-11-24T21:29:01.457Z,101230.31
2022-11-24T21:31:28.015Z,101223.19
2022-11-24T21:33:55.310Z,101229.13
2022-11-24T21:36:24.242Z,101224.03
2022-11-24T21:38:56.035Z,101225.69
2022-11-24T21:41:23.819Z,101220.41
2022-11-24T21:43:51.632Z,101222.88
2022-11-24T21:46:18.340Z,101227.47
2022-11-24T21:48:44.940Z,101222.19
2022-11-24T21:51:17.058Z,101210.13
2022-11-24T21:53:45.012Z,101212.78
2022-11-24T21:56:21.877Z,101209.47
2022-11-24T21:58:53.564Z,101210.13
2022-11-24T22:01:22.161Z,101204.84
2022-11-24T22:03:48.854Z,101202.03
2022-11-24T22:06:19.231Z,101196.72
2022-11-24T22:08:47.016Z,101201.88
2022-11-24T22:11:22.183Z,101203.22
2022-11-24T22:13:49.510Z,101194.28
2022-11-24T22:16:18.391Z,101192.31
2022-11-24T22:18:45.566Z,101182.72
2022-11-24T22:21:17.836Z,101193.97
2022-11-24T22:23:44.509Z,101188.69
2022-11-24T22:26:16.619Z,101191.31
2022-11-24T22:28:44.651Z,101185.69
2022-11-24T22:31:16.529Z,101195.94
2022-11-24T22:33:46.423Z,101199.41
2022-11-24T22:36:14.629Z,101190.81
2022-11-24T22:38:41.594Z,101193.97
2022-11-24T22:41:10.798Z,101188.50
2022-11-24T22:43:39.096Z,101186.69
2022-11-24T22:46:11.100Z,101184.72
2022-11-24T22:48:38.601Z,101190.69
2022-11-24T22:51:13.622Z,101194.47
2022-11-24T22:53:40.311Z,101192.66
2022-11-24T22:56:12.292Z,101195.31
2022-11-24T22:58:39.473Z,101198.63
2022-11-24T23:01:06.252Z,101191.66
2022-11-24T23:03:34.520Z,101189.84
2022-11-24T23:06:02.509Z,101199.28
2022-11-24T23:08:30.210Z,101197.63
2022-11-24T23:11:08.354Z,101202.91
2022-11-24T23:13:35.220Z,101199.59
2022-11-24T23:16:10.876Z,101199.59
2022-11-24T23:18:37.773Z,101188.03
2022-11-24T23:21:15.013Z,101191.66
2022-11-24T23:23:41.825Z,101189.03
2022-11-24T23:26:11.518Z,101192.66
2022-11-24T23:28:38.501Z,101188.50
2022-11-24T23:31:08.900Z,101179.56
2022-11-24T23:33:35.942Z,101184.72
2022-11-24T23:36:04.777Z,101174.13
2022-11-24T23:38:34.648Z,101167.00
2022-11-24T23:41:06.257Z,101175.63
2022-11-24T23:43:34.404Z,101177.28
2022-11-24T23:46:06.038Z,101181.75
2022-11-24T23:48:33.555Z,101177.78
2022-11-24T23:51:07.754Z,101174.13
2022-11-24T23:53:35.660Z,101179.56
2022-11-24T23:56:02.566Z,101167.66
2022-11-24T23:58:29.291Z,101172.47
